Time;durP1;ratioP1;P1;durP2;ratioP2;P2;SDS_P1;SDS_P2;PMS_P1;PMS_P2;Temp;Humidity;BMP_temperature;BMP_pressure;BME280_temperature;BME280_humidity;BME280_pressure;Samples;Min_cycle;Max_cycle;Signal;HPM_P1;HPM_P2
2022/08/15 00:01:06;;;;;;;2.83;2.63;;;;;;;24.34;37.49;95706.59;6213964;23;20025;-75
2022/08/15 00:03:39;;;;;;;4.03;2.80;;;;;;;24.34;37.63;95703.94;6214994;23;20079;-77
2022/08/15 00:06:31;;;;;;;11.50;3.00;;;;;;;24.32;37.95;95700.75;6216672;23;20031;-78
2022/08/15 00:09:10;;;;;;;3.80;3.10;;;;;;;24.31;38.38;95704.50;6216671;23;20044;-77
2022/08/15 00:11:41;;;;;;;3.38;2.67;;;;;;;24.28;38.36;95700.53;6214676;23;20040;-77
2022/08/15 00:14:14;;;;;;;3.70;2.50;;;;;;;24.26;38.31;95706.16;6214751;23;20032;-76
2022/08/15 00:16:59;;;;;;;2.80;2.60;;;;;;;24.27;38.70;95701.63;6214885;23;20062;-78
2022/08/15 00:19:29;;;;;;;8.57;2.58;;;;;;;24.26;38.70;95700.81;6214428;23;20052;-78
2022/08/15 00:22:04;;;;;;;3.60;2.80;;;;;;;24.26;38.78;95706.16;6213909;23;20237;-77
2022/08/15 00:24:45;;;;;;;3.30;2.35;;;;;;;24.25;38.93;95707.25;6214754;23;20107;-76
2022/08/15 00:27:19;;;;;;;2.65;2.45;;;;;;;24.23;38.58;95704.09;6214468;23;20078;-76
2022/08/15 00:29:53;;;;;;;3.17;2.90;;;;;;;24.22;38.85;95704.38;6214349;23;20016;-77
2022/08/15 00:32:23;;;;;;;2.40;2.28;;;;;;;24.22;39.28;95715.81;6214192;23;20405;-77
2022/08/15 00:37:55;;;;;;;4.93;2.95;;;;;;;24.20;39.43;95699.31;6213680;23;20024;-76
2022/08/15 00:43:35;;;;;;;2.97;2.65;;;;;;;24.15;39.39;95709.28;6214336;23;20021;-77
2022/08/15 00:46:07;;;;;;;4.40;2.72;;;;;;;24.14;39.87;95707.69;6214494;23;20024;-76
2022/08/15 00:48:49;;;;;;;3.50;2.80;;;;;;;24.11;39.97;95709.06;6213882;23;20016;-76
2022/08/15 00:51:25;;;;;;;3.47;2.50;;;;;;;24.11;40.11;95718.94;6213980;23;20060;-76
2022/08/15 00:54:02;;;;;;;3.90;2.60;;;;;;;24.10;40.25;95715.47;6213866;23;20059;-77
2022/08/15 00:56:34;;;;;;;3.20;2.47;;;;;;;24.10;40.44;95712.81;6214380;23;20020;-76
2022/08/15 00:59:03;;;;;;;5.38;2.67;;;;;;;24.11;40.37;95713.59;6214375;23;20021;-76
2022/08/15 01:01:33;;;;;;;5.53;2.70;;;;;;;24.10;40.49;95712.81;6215552;23;20025;-77
2022/08/15 01:04:08;;;;;;;3.88;2.70;;;;;;;24.10;40.47;95707.50;6216303;23;20103;-76
2022/08/15 01:06:46;;;;;;;5.57;2.72;;;;;;;24.07;40.45;95713.38;6216300;23;20099;-76
2022/08/15 01:09:19;;;;;;;3.67;3.38;;;;;;;24.06;40.39;95711.81;6216434;23;20326;-77
2022/08/15 01:11:53;;;;;;;3.80;2.90;;;;;;;24.06;40.66;95709.94;6216024;23;20399;-76
2022/08/15 01:14:23;;;;;;;2.47;2.28;;;;;;;24.07;40.95;95700.06;6216099;23;20498;-78
2022/08/15 01:17:12;;;;;;;6.82;2.92;;;;;;;24.07;40.94;95700.06;6215792;23;20481;-76
2022/08/15 01:19:43;;;;;;;4.00;2.70;;;;;;;24.04;41.02;95705.97;6216190;23;20051;-76
2022/08/15 01:22:23;;;;;;;4.88;2.50;;;;;;;24.01;41.16;95702.03;6215893;23;20036;-76
2022/08/15 01:24:58;;;;;;;3.88;2.72;;;;;;;24.00;41.27;95696.97;6216845;23;20460;-76
2022/08/15 01:27:51;;;;;;;5.22;3.13;;;;;;;23.98;41.57;95701.81;6217169;23;20023;-76
2022/08/15 01:30:23;;;;;;;4.93;3.10;;;;;;;23.95;41.22;95699.72;6217440;23;20020;-78
2022/08/15 01:33:11;;;;;;;4.05;2.90;;;;;;;23.93;41.14;95704.53;6217219;23;20109;-76
2022/08/15 01:35:42;;;;;;;6.50;3.35;;;;;;;23.92;41.36;95693.09;6216613;23;20103;-76
2022/08/15 01:38:25;;;;;;;4.43;2.72;;;;;;;23.94;41.28;95704.28;6216461;23;20028;-77
2022/08/15 01:41:16;;;;;;;;;;;;;;;23.94;41.04;95703.47;6216435;23;20025;-76
2022/08/15 01:43:58;;;;;;;3.85;2.67;;;;;;;23.93;41.93;95709.88;6216272;23;19994;-76
2022/08/15 01:46:52;;;;;;;3.63;2.95;;;;;;;23.90;41.76;95707.78;6215622;23;20016;-78
2022/08/15 01:49:24;;;;;;;3.92;3.00;;;;;;;23.89;41.85;95711.53;6215793;23;20391;-76
2022/08/15 01:51:54;;;;;;;5.20;2.83;;;;;;;23.90;41.75;95713.09;6215660;23;20078;-76
2022/08/15 01:54:23;;;;;;;3.25;2.95;;;;;;;23.88;41.94;95716.06;6215426;23;20083;-76
2022/08/15 01:57:12;;;;;;;3.22;2.92;;;;;;;23.88;42.23;95715.25;6215270;23;20024;-76
2022/08/15 01:59:40;;;;;;;2.92;2.63;;;;;;;23.85;42.50;95717.44;6216082;23;20028;-76
2022/08/15 02:02:12;;;;;;;4.88;3.13;;;;;;;23.84;42.33;95718.50;6215365;23;20024;-78
2022/08/15 02:05:00;;;;;;;5.20;2.97;;;;;;;23.82;42.27;95723.31;6215167;23;20031;-76
2022/08/15 02:07:29;;;;;;;4.28;2.90;;;;;;;23.82;42.47;95730.53;6215609;23;20020;-76
2022/08/15 02:09:59;;;;;;;2.70;2.45;;;;;;;23.83;42.33;95729.44;6215255;23;20551;-77
2022/08/15 02:12:48;;;;;;;2.85;2.65;;;;;;;23.82;42.72;95731.31;6214802;23;20107;-76
2022/08/15 02:15:36;;;;;;;5.85;2.63;;;;;;;23.80;42.55;95728.16;6215826;23;20360;-77
2022/08/15 02:18:03;;;;;;;5.35;3.33;;;;;;;23.80;42.96;95720.16;6216283;23;20412;-76
2022/08/15 02:20:31;;;;;;;4.18;3.10;;;;;;;23.81;43.42;95727.09;6214850;23;20023;-76
2022/08/15 02:23:07;;;;;;;3.30;3.00;;;;;;;23.80;43.71;95733.47;6215433;23;20094;-76
2022/08/15 02:25:47;;;;;;;3.67;3.17;;;;;;;23.80;43.46;95730.81;6216024;23;20368;-76
2022/08/15 02:28:18;;;;;;;5.43;2.60;;;;;;;23.80;43.87;95736.13;6215498;23;20021;-76
2022/08/15 02:31:08;;;;;;;3.72;2.53;;;;;;;23.82;44.28;95735.84;6215136;23;20017;-76
2022/08/15 02:33:38;;;;;;;2.95;2.55;;;;;;;23.83;44.55;95746.22;6215856;23;20070;-77
2022/08/15 02:36:09;;;;;;;4.88;3.22;;;;;;;23.84;44.42;95739.81;6216202;23;20020;-76
2022/08/15 02:38:39;;;;;;;3.22;2.92;;;;;;;23.82;44.79;95741.19;6216165;23;20032;-75
2022/08/15 02:41:19;;;;;;;2.80;2.60;;;;;;;23.83;44.93;95745.41;6216231;23;20129;-76
2022/08/15 02:43:51;;;;;;;3.58;2.80;;;;;;;23.82;44.84;95744.63;6216109;23;20472;-78
2022/08/15 02:46:20;;;;;;;3.90;3.45;;;;;;;23.78;44.87;95743.63;6216799;23;20381;-75
2022/08/15 02:48:57;;;;;;;4.13;2.92;;;;;;;23.76;45.41;95750.31;6216724;23;20095;-77
2022/08/15 02:51:26;;;;;;;3.25;2.70;;;;;;;23.74;45.49;95747.91;6215902;23;20461;-76
2022/08/15 02:53:54;;;;;;;2.78;2.58;;;;;;;23.70;45.71;95746.88;6216024;23;20338;-78
2022/08/15 02:56:24;;;;;;;4.75;3.10;;;;;;;23.67;45.70;95746.69;6215763;23;20457;-76
2022/08/15 02:58:59;;;;;;;3.25;2.80;;;;;;;23.65;46.41;95760.28;6216815;23;20025;-76
2022/08/15 03:01:27;;;;;;;3.90;2.70;;;;;;;23.62;46.42;95758.19;6215926;23;20059;-76
2022/08/15 03:04:12;;;;;;;4.30;3.15;;;;;;;23.60;46.56;95752.34;6215609;23;20024;-76
2022/08/15 03:06:56;;;;;;;5.32;2.92;;;;;;;23.58;47.00;95751.84;6215929;23;20024;-76
2022/08/15 03:09:25;;;;;;;2.90;2.33;;;;;;;23.57;47.20;95752.91;6215953;23;20490;-76
2022/08/15 03:11:59;;;;;;;5.07;3.08;;;;;;;23.55;46.66;95749.72;6216217;23;20488;-77
2022/08/15 03:14:48;;;;;;;2.83;2.22;;;;;;;23.55;47.01;95749.72;6217120;23;20076;-76
2022/08/15 03:17:16;;;;;;;3.33;2.65;;;;;;;23.54;47.21;95743.63;6217194;23;20356;-76
2022/08/15 03:19:43;;;;;;;3.38;3.08;;;;;;;23.56;47.18;95743.34;6216405;23;20025;-77
2022/08/15 03:22:12;;;;;;;3.63;2.78;;;;;;;23.55;47.49;95739.09;6215464;23;20024;-77
2022/08/15 03:24:59;;;;;;;4.43;2.88;;;;;;;23.54;47.91;95742.84;6215522;23;20479;-76
2022/08/15 03:27:27;;;;;;;3.80;2.60;;;;;;;23.54;47.80;95740.19;6215921;23;20389;-77
2022/08/15 03:29:56;;;;;;;2.85;2.50;;;;;;;23.54;48.30;95738.31;6215735;23;20016;-77
2022/08/15 03:32:24;;;;;;;2.90;2.50;;;;;;;23.56;48.16;95735.38;6215902;23;20360;-77
2022/08/15 03:35:01;;;;;;;5.40;2.78;;;;;;;23.54;48.01;95737.53;6216282;23;20028;-76
2022/08/15 03:37:29;;;;;;;5.65;2.92;;;;;;;23.51;48.33;95732.78;6215783;23;20028;-77
2022/08/15 03:39:57;;;;;;;4.95;3.03;;;;;;;23.48;48.39;95738.66;6216075;23;20025;-79
2022/08/15 03:42:25;;;;;;;5.35;3.05;;;;;;;23.44;48.42;95741.13;6216434;23;20020;-77
2022/08/15 03:45:08;;;;;;;5.25;2.80;;;;;;;23.41;48.94;95741.66;6216117;23;20028;-78
2022/08/15 03:47:36;;;;;;;5.30;2.70;;;;;;;23.37;49.12;95737.97;6216409;23;20027;-77
2022/08/15 03:50:09;;;;;;;;;;;;;;;23.36;48.25;95742.53;6216948;23;20021;-76
2022/08/15 03:52:55;;;;;;;4.20;3.17;;;;;;;23.33;49.20;95747.59;6216039;23;19915;-77
2022/08/15 03:55:25;;;;;;;7.05;2.78;;;;;;;23.29;49.10;95747.41;6216012;23;20055;-77
2022/08/15 03:57:55;;;;;;;4.88;3.05;;;;;;;23.26;49.21;95753.25;6215740;23;20024;-77
2022/08/15 04:00:35;;;;;;;4.80;3.08;;;;;;;23.24;49.83;95744.78;6215858;23;20020;-76
2022/08/15 04:03:05;;;;;;;4.20;2.83;;;;;;;23.23;49.88;95753.84;6215879;23;20028;-76
2022/08/15 04:05:34;;;;;;;4.18;2.67;;;;;;;23.21;49.62;95750.69;6215835;23;20025;-78
2022/08/15 04:08:09;;;;;;;4.05;2.80;;;;;;;23.19;49.79;95758.13;6215383;23;20083;-77
2022/08/15 04:10:58;;;;;;;4.85;2.72;;;;;;;23.18;49.91;95757.34;6215271;23;20026;-77
2022/08/15 04:13:25;;;;;;;4.88;2.63;;;;;;;23.16;50.08;95764.03;6215724;23;20052;-77
2022/08/15 04:15:59;;;;;;;5.30;2.70;;;;;;;23.15;50.38;95773.06;6216136;23;20032;-76
2022/08/15 04:18:47;;;;;;;4.75;2.60;;;;;;;23.12;49.97;95769.13;6215075;23;20043;-76
2022/08/15 04:21:16;;;;;;;6.32;2.60;;;;;;;23.11;50.48;95766.72;6213292;23;20507;-77
2022/08/15 04:23:46;;;;;;;4.35;2.60;;;;;;;23.11;50.35;95774.72;6214064;23;20097;-77
2022/08/15 04:26:18;;;;;;;4.93;2.58;;;;;;;23.10;50.26;95765.94;6214689;23;20024;-77
2022/08/15 04:28:52;;;;;;;3.13;2.42;;;;;;;23.10;50.17;95773.94;6215412;23;20074;-77
2022/08/15 04:31:25;;;;;;;3.17;1.95;;;;;;;23.09;50.79;95775.00;6214369;23;20055;-77
2022/08/15 04:33:59;;;;;;;4.55;2.58;;;;;;;23.09;50.79;95782.19;6215258;23;20025;-76
2022/08/15 04:36:47;;;;;;;4.90;2.60;;;;;;;23.09;50.47;95780.34;6214431;23;20020;-77
2022/08/15 04:39:17;;;;;;;3.17;2.55;;;;;;;23.10;50.46;95781.91;6215335;23;20020;-77
2022/08/15 04:41:45;;;;;;;2.63;2.40;;;;;;;23.09;50.44;95779.53;6214613;23;20484;-76
2022/08/15 04:44:17;;;;;;;3.90;2.38;;;;;;;23.08;50.83;95785.94;6216715;23;20025;-77
2022/08/15 04:46:46;;;;;;;5.10;2.47;;;;;;;23.07;50.94;95789.66;6215471;23;20052;-77
2022/08/15 04:49:14;;;;;;;3.58;2.22;;;;;;;23.06;50.78;95788.06;6215754;23;20539;-77
2022/08/15 04:51:43;;;;;;;3.80;2.28;;;;;;;23.03;50.70;95787.56;6214327;23;20024;-77
2022/08/15 04:54:11;;;;;;;4.53;2.53;;;;;;;23.01;50.71;95787.03;6214540;23;20469;-77
2022/08/15 04:56:42;;;;;;;3.58;2.50;;;;;;;22.99;51.17;95791.81;6215385;23;20021;-76
2022/08/15 04:59:17;;;;;;;3.53;2.47;;;;;;;22.96;51.18;95803.03;6216302;23;20020;-76
2022/08/15 05:02:05;;;;;;;4.85;2.78;;;;;;;22.93;51.16;95798.25;6216742;23;20020;-77
2022/08/15 05:04:53;;;;;;;6.35;2.83;;;;;;;22.94;51.18;95804.38;6215820;23;20023;-77
2022/08/15 05:07:22;;;;;;;2.45;2.25;;;;;;;22.91;51.04;95795.09;6217098;23;20031;-82
2022/08/15 05:16:25;;;;;;;3.20;2.72;;;;;;;22.91;51.35;95795.09;6213372;23;20031;-77
2022/08/15 05:19:03;;;;;;;6.53;2.63;;;;;;;22.91;51.43;95795.09;6216840;23;20099;-77
2022/08/15 05:21:33;;;;;;;3.08;2.50;;;;;;;22.91;51.07;95789.75;6215424;23;20030;-77
2022/08/15 05:24:10;;;;;;;2.92;2.35;;;;;;;22.90;51.06;95782.09;6215435;23;20021;-77
2022/08/15 05:26:38;;;;;;;5.45;2.67;;;;;;;22.90;51.13;95779.44;6215004;23;20024;-77
2022/08/15 05:29:25;;;;;;;3.63;2.40;;;;;;;22.90;51.07;95772.22;6215472;23;20027;-77
2022/08/15 05:31:54;;;;;;;6.97;2.30;;;;;;;22.89;51.32;95775.94;6215096;23;20044;-77
2022/08/15 05:34:23;;;;;;;3.42;2.40;;;;;;;22.89;51.56;95781.28;6218911;23;20043;-78
2022/08/15 05:37:09;;;;;;;5.32;2.35;;;;;;;22.92;51.09;95780.72;6218068;23;20025;-78
2022/08/15 05:39:39;;;;;;;3.65;2.35;;;;;;;22.93;51.42;95776.19;6218030;23;20361;-77
2022/08/15 05:42:20;;;;;;;2.97;2.50;;;;;;;22.95;51.68;95772.19;6217309;23;20024;-77
2022/08/15 05:45:09;;;;;;;3.95;2.75;;;;;;;22.94;51.17;95773.25;6217566;23;20020;-77
2022/08/15 05:47:43;;;;;;;3.25;2.72;;;;;;;22.96;51.72;95778.31;6219531;23;20071;-77
2022/08/15 05:50:30;;;;;;;6.07;2.30;;;;;;;22.95;51.35;95766.84;6219566;23;20025;-77
2022/08/15 05:53:07;;;;;;;3.20;2.37;;;;;;;22.98;51.38;95771.63;6215759;23;20020;-74
2022/08/15 05:55:44;;;;;;;4.57;2.45;;;;;;;23.01;51.32;95781.72;6215984;23;20292;-74
2022/08/15 05:58:29;;;;;;;3.63;2.55;;;;;;;23.07;51.04;95781.66;6215989;23;20056;-74
2022/08/15 06:01:14;;;;;;;4.57;2.25;;;;;;;23.11;50.67;95782.69;6215120;23;20020;-74
2022/08/15 06:03:48;;;;;;;3.47;2.13;;;;;;;23.14;50.45;95779.50;6215746;23;20449;-74
2022/08/15 06:06:23;;;;;;;4.05;2.58;;;;;;;23.15;50.79;95783.72;6215839;23;20491;-74
2022/08/15 06:08:56;;;;;;;4.65;2.10;;;;;;;23.15;50.68;95795.16;6216370;23;20099;-74
2022/08/15 06:11:36;;;;;;;4.80;2.55;;;;;;;23.16;50.67;95790.66;6215418;23;20071;-74
2022/08/15 06:14:14;;;;;;;3.88;2.47;;;;;;;23.18;50.65;95793.81;6215696;23;20024;-74
2022/08/15 06:16:56;;;;;;;7.75;2.05;;;;;;;23.19;50.23;95795.38;6221061;23;20021;-75
2022/08/15 06:19:28;;;;;;;4.80;2.30;;;;;;;23.22;50.67;95794.81;6227536;23;20056;-74
2022/08/15 06:22:14;;;;;;;3.58;2.28;;;;;;;23.27;50.15;95800.09;6220295;23;20071;-74
2022/08/15 06:24:49;;;;;;;5.22;2.50;;;;;;;23.34;50.35;95797.09;6215993;23;20052;-74
2022/08/15 06:27:26;;;;;;;2.33;2.10;;;;;;;23.39;50.42;95791.72;6216083;23;20024;-74
2022/08/15 06:30:17;;;;;;;3.05;2.10;;;;;;;23.41;50.19;95792.22;6215131;23;20027;-74
2022/08/15 06:32:51;;;;;;;;;;;;;;;23.48;49.78;95802.53;6215641;23;20016;-75
2022/08/15 06:35:28;;;;;;;4.22;2.15;;;;;;;23.52;49.46;95800.91;6215146;23;20336;-74
2022/08/15 06:38:08;;;;;;;4.30;2.00;;;;;;;23.54;48.80;95796.06;6215262;23;20020;-74
2022/08/15 06:41:00;;;;;;;2.67;2.00;;;;;;;23.52;49.40;95798.22;6214773;23;20024;-74
2022/08/15 06:43:29;;;;;;;4.72;2.00;;;;;;;23.55;48.89;95798.47;6215249;23;20475;-74
2022/08/15 06:46:01;;;;;;;2.88;1.85;;;;;;;23.56;49.11;95805.38;6214923;23;20476;-74
2022/08/15 06:48:49;;;;;;;3.38;1.98;;;;;;;23.59;49.09;95804.00;6215299;23;20047;-74
2022/08/15 06:51:35;;;;;;;2.38;1.90;;;;;;;23.59;48.49;95788.03;6215038;23;20268;-74
2022/08/15 06:54:17;;;;;;;5.00;1.85;;;;;;;23.60;48.08;95794.94;6214952;23;20024;-74
2022/08/15 06:57:09;;;;;;;3.55;1.95;;;;;;;23.60;48.11;95790.41;6215235;23;20051;-74
2022/08/15 06:59:57;;;;;;;1.73;1.63;;;;;;;23.58;48.04;95781.91;6215709;23;20043;-74
2022/08/15 07:02:37;;;;;;;2.25;1.83;;;;;;;23.59;48.47;95790.69;6215291;23;20100;-74
2022/08/15 07:05:14;;;;;;;2.10;1.60;;;;;;;23.57;47.86;95800.81;6215232;23;20021;-74
2022/08/15 07:08:01;;;;;;;2.22;1.50;;;;;;;23.57;48.18;95803.47;6215332;23;20027;-74
2022/08/15 07:10:36;;;;;;;1.85;1.40;;;;;;;23.58;48.03;95795.22;6214962;23;20045;-74
2022/08/15 07:13:12;;;;;;;1.65;1.55;;;;;;;23.58;47.91;95789.91;6215030;23;20048;-74
2022/08/15 07:15:49;;;;;;;2.97;1.50;;;;;;;23.58;47.79;95791.78;6215125;23;20075;-74
2022/08/15 07:18:25;;;;;;;1.55;1.45;;;;;;;23.57;47.86;95777.69;6215132;23;20071;-74
2022/08/15 07:21:01;;;;;;;2.75;1.70;;;;;;;23.56;47.70;95772.63;6214205;23;20095;-74
2022/08/15 07:24:02;;;;;;;2.38;1.48;;;;;;;23.58;47.70;95770.47;6214903;23;20519;-74
2022/08/15 07:26:54;;;;;;;1.98;1.63;;;;;;;23.61;47.80;95780.56;6214569;23;20027;-74
2022/08/15 07:29:29;;;;;;;6.90;1.73;;;;;;;23.65;48.12;95781.56;6214745;23;20479;-74
2022/08/15 07:32:10;;;;;;;1.52;1.40;;;;;;;23.69;48.12;95779.13;6214467;23;20079;-74
2022/08/15 07:35:04;;;;;;;2.03;1.60;;;;;;;23.74;47.79;95779.84;6214202;23;20020;-74
2022/08/15 07:37:41;;;;;;;2.72;1.48;;;;;;;23.76;47.68;95785.72;6214618;23;20482;-74
2022/08/15 07:40:27;;;;;;;1.50;1.40;;;;;;;23.81;47.75;95793.66;6214211;23;20107;-74
2022/08/15 07:43:02;;;;;;;1.42;1.33;;;;;;;23.84;47.65;95786.97;6214776;23;20024;-74
2022/08/15 07:45:36;;;;;;;2.83;1.45;;;;;;;23.87;47.26;95793.59;6214879;23;20027;-74
2022/08/15 07:48:07;;;;;;;1.75;1.35;;;;;;;23.87;47.52;95785.59;6214843;23;20132;-74
2022/08/15 07:50:39;;;;;;;3.33;1.30;;;;;;;23.88;47.38;95795.97;6214593;23;20351;-74
2022/08/15 07:53:16;;;;;;;2.10;1.33;;;;;;;23.94;47.63;95799.34;6214528;23;20067;-74
2022/08/15 07:56:08;;;;;;;2.38;1.40;;;;;;;23.99;47.14;95793.97;6214193;23;20465;-75
2022/08/15 07:59:10;;;;;;;3.03;1.58;;;;;;;24.15;47.26;95797.22;6214340;23;20024;-74
2022/08/15 08:01:38;;;;;;;3.08;1.48;;;;;;;24.28;46.51;95788.50;6214416;23;20086;-74
2022/08/15 08:04:11;;;;;;;2.17;1.50;;;;;;;24.42;46.57;95801.88;6214643;23;20382;-74
2022/08/15 08:06:56;;;;;;;1.75;1.25;;;;;;;24.54;46.35;95809.47;6214657;23;20020;-74
2022/08/15 08:09:30;;;;;;;;;;;;;;;24.65;45.84;95814.34;6215044;23;20027;-74
2022/08/15 08:12:09;;;;;;;2.03;1.70;;;;;;;24.72;45.36;95807.84;6214191;23;19915;-74
2022/08/15 08:14:50;;;;;;;1.50;1.40;;;;;;;24.79;45.19;95800.25;6214537;23;20048;-75
2022/08/15 08:17:26;;;;;;;3.28;1.30;;;;;;;24.88;45.09;95814.50;6214635;23;20025;-74
2022/08/15 08:20:23;;;;;;;2.75;1.38;;;;;;;24.97;44.91;95806.63;6214434;23;20494;-74
2022/08/15 08:23:01;;;;;;;1.20;1.10;;;;;;;25.06;44.58;95808.34;6214470;23;20096;-75
2022/08/15 08:25:40;;;;;;;1.30;1.20;;;;;;;25.15;44.69;95797.00;6214524;23;20358;-74
2022/08/15 08:28:36;;;;;;;2.00;1.15;;;;;;;25.23;43.94;95812.34;6214118;23;20038;-74
2022/08/15 08:31:17;;;;;;;2.80;1.33;;;;;;;25.21;43.67;95801.16;6214268;23;20024;-74
2022/08/15 08:33:59;;;;;;;2.05;1.38;;;;;;;25.16;43.66;95811.91;6213789;23;20096;-74
2022/08/15 08:36:42;;;;;;;1.70;1.20;;;;;;;25.18;43.38;95805.19;6214363;23;20028;-74
2022/08/15 08:39:28;;;;;;;3.90;1.20;;;;;;;25.21;43.38;95820.66;6214330;23;20028;-74
2022/08/15 08:42:07;;;;;;;1.13;0.98;;;;;;;25.25;43.23;95810.16;6214132;23;20020;-74
2022/08/15 08:45:01;;;;;;;4.68;1.25;;;;;;;25.30;43.23;95810.09;6214305;23;20026;-74
2022/08/15 08:47:40;;;;;;;2.45;1.15;;;;;;;25.40;42.85;95817.09;6214289;23;20044;-74
2022/08/15 08:50:22;;;;;;;1.42;1.20;;;;;;;25.47;42.80;95825.50;6213950;23;20028;-74
2022/08/15 08:53:13;;;;;;;1.50;1.30;;;;;;;25.55;42.40;95830.16;6214075;23;20017;-74
2022/08/15 08:55:47;;;;;;;3.42;1.40;;;;;;;25.60;42.24;95821.28;6221628;23;20025;-74
2022/08/15 08:58:23;;;;;;;1.48;1.38;;;;;;;25.66;42.03;95841.44;6237100;23;20021;-75
2022/08/15 09:01:15;;;;;;;2.33;0.95;;;;;;;25.76;41.60;95840.44;6229150;23;20024;-74
2022/08/15 09:03:49;;;;;;;2.30;1.60;;;;;;;25.81;41.60;95835.03;6214122;23;20020;-74
2022/08/15 09:06:22;;;;;;;1.38;1.23;;;;;;;25.87;41.55;95826.59;6214836;23;20033;-74
2022/08/15 09:09:01;;;;;;;2.15;1.40;;;;;;;25.99;41.16;95828.00;6215306;23;20032;-74
2022/08/15 09:11:33;;;;;;;2.28;1.38;;;;;;;26.13;41.27;95811.94;6214159;23;20025;-74
2022/08/15 09:14:17;;;;;;;2.60;1.48;;;;;;;26.28;40.72;95815.09;6214283;23;20091;-74
2022/08/15 09:17:03;;;;;;;3.95;1.33;;;;;;;26.43;39.99;95813.16;6214069;23;20051;-74
2022/08/15 09:19:59;;;;;;;1.67;1.50;;;;;;;26.57;39.58;95826.53;6213717;23;20464;-74
2022/08/15 09:22:27;;;;;;;1.60;1.15;;;;;;;26.65;39.67;95825.78;6215316;23;20023;-74
2022/08/15 09:25:06;;;;;;;2.60;1.13;;;;;;;26.74;39.33;95831.97;6216237;23;20021;-74
2022/08/15 09:27:44;;;;;;;1.33;1.15;;;;;;;26.85;38.68;95833.34;6216250;23;20028;-74
2022/08/15 09:30:27;;;;;;;2.53;1.38;;;;;;;26.95;38.63;95828.81;6215881;23;20017;-74
2022/08/15 09:33:28;;;;;;;2.80;1.27;;;;;;;27.06;37.88;95833.59;6215783;23;20017;-74
2022/08/15 09:36:16;;;;;;;1.67;1.20;;;;;;;27.18;38.50;95824.22;6216252;23;20035;-74
2022/08/15 09:39:02;;;;;;;3.13;1.00;;;;;;;27.27;37.52;95823.22;6223962;23;20052;-74
2022/08/15 09:41:57;;;;;;;1.35;0.98;;;;;;;27.35;36.84;95828.91;6227323;23;20024;-75
2022/08/15 09:44:45;;;;;;;1.70;1.10;;;;;;;27.42;36.36;95835.41;6220247;23;20047;-75
2022/08/15 09:47:38;;;;;;;2.10;1.00;;;;;;;27.48;36.01;95828.00;6216870;23;20024;-74
2022/08/15 09:50:34;;;;;;;3.05;1.10;;;;;;;27.52;36.18;95819.03;6216069;23;20100;-74
2022/08/15 09:53:23;;;;;;;3.63;1.10;;;;;;;27.60;36.55;95819.41;6216075;23;20120;-74
2022/08/15 09:55:52;;;;;;;1.38;1.10;;;;;;;27.66;36.13;95808.25;6216567;23;20408;-74
2022/08/15 09:58:24;;;;;;;1.60;1.13;;;;;;;27.69;35.76;95812.19;6216340;23;20178;-75
2022/08/15 10:01:03;;;;;;;1.35;1.20;;;;;;;27.76;35.80;95812.50;6215893;23;20411;-75
2022/08/15 10:03:54;;;;;;;1.60;1.17;;;;;;;27.80;35.38;95808.09;6215856;23;20044;-74
2022/08/15 10:06:24;;;;;;;1.17;1.05;;;;;;;27.82;34.72;95803.22;6216139;23;20334;-75
2022/08/15 10:09:14;;;;;;;1.48;0.90;;;;;;;27.88;35.17;95801.25;6216055;23;20404;-75
2022/08/15 10:12:12;;;;;;;0.70;0.70;;;;;;;27.92;34.02;95800.28;6216012;23;20028;-75
2022/08/15 10:14:43;;;;;;;1.75;1.08;;;;;;;27.95;34.16;95801.56;6191122;23;20100;-74
2022/08/15 10:17:27;;;;;;;1.90;1.17;;;;;;;27.96;34.35;95796.97;6215857;23;20028;-75
2022/08/15 10:19:56;;;;;;;2.38;1.00;;;;;;;28.00;34.54;95808.66;6215497;23;20457;-75
2022/08/15 10:22:50;;;;;;;1.50;1.27;;;;;;;28.07;34.12;95795.56;6215099;23;20016;-75
2022/08/15 10:25:29;;;;;;;1.92;1.77;;;;;;;28.15;33.83;95802.84;6215319;23;20051;-75
2022/08/15 10:28:01;;;;;;;2.35;1.05;;;;;;;28.18;33.92;95786.13;6215666;23;20396;-75
2022/08/15 10:31:25;;;;;;;1.05;0.98;;;;;;;28.23;33.49;95788.66;6214679;23;20027;-75
2022/08/15 10:34:20;;;;;;;1.95;0.90;;;;;;;28.29;33.46;95798.09;6215117;23;20027;-75
2022/08/15 10:37:09;;;;;;;1.63;0.80;;;;;;;28.38;33.48;95790.06;6215616;23;20028;-75
2022/08/15 10:39:54;;;;;;;2.25;1.00;;;;;;;28.45;33.18;95794.97;6215821;23;20369;-75
2022/08/15 10:42:35;;;;;;;0.98;0.80;;;;;;;28.50;33.15;95797.53;6215432;23;20338;-75
2022/08/15 10:45:11;;;;;;;3.83;1.58;;;;;;;28.55;32.71;95794.66;6215271;23;20021;-75
2022/08/15 10:47:54;;;;;;;1.95;0.90;;;;;;;28.59;33.05;95795.63;6215257;23;20024;-76
2022/08/15 10:50:45;;;;;;;0.85;0.85;;;;;;;28.66;33.47;95785.19;6215090;23;20095;-75
2022/08/15 10:53:28;;;;;;;1.23;1.02;;;;;;;28.70;33.17;95788.03;6214954;23;20483;-76
2022/08/15 10:56:07;;;;;;;2.00;0.80;;;;;;;28.75;32.92;95777.94;6214775;23;20021;-75
2022/08/15 10:59:01;;;;;;;2.92;1.10;;;;;;;28.83;32.52;95794.31;6215001;23;20356;-76
2022/08/15 11:01:32;;;;;;;1.15;1.05;;;;;;;28.87;32.99;95788.00;6214902;23;20020;-76
2022/08/15 11:04:14;;;;;;;1.17;0.70;;;;;;;28.95;32.67;95783.69;6214694;23;20088;-76
2022/08/15 11:07:16;;;;;;;1.27;1.10;;;;;;;29.04;32.49;95786.38;6214636;23;20028;-76
2022/08/15 11:09:50;;;;;;;;;;;;;;;29.10;32.91;95783.25;6215684;23;20044;-76
2022/08/15 11:12:20;;;;;;;1.00;0.90;;;;;;;29.11;32.78;95786.72;6214846;23;19998;-75
2022/08/15 11:14:56;;;;;;;1.85;1.20;;;;;;;29.12;32.48;95786.38;6214584;23;20024;-75
2022/08/15 11:17:27;;;;;;;2.45;1.08;;;;;;;29.19;32.77;95785.09;6214675;23;20514;-75
2022/08/15 11:20:17;;;;;;;1.35;1.10;;;;;;;29.25;31.72;95789.19;6214916;23;20028;-75
2022/08/15 11:22:50;;;;;;;1.67;1.20;;;;;;;29.31;32.21;95787.91;6214965;23;20059;-75
2022/08/15 11:25:24;;;;;;;3.17;1.00;;;;;;;29.33;31.90;95780.31;6214670;23;20475;-75
2022/08/15 11:28:02;;;;;;;3.03;1.13;;;;;;;29.39;31.90;95779.03;6214995;23;20055;-75
2022/08/15 11:30:59;;;;;;;1.23;1.05;;;;;;;29.50;31.92;95779.47;6214092;23;20107;-76
2022/08/15 11:33:30;;;;;;;1.25;1.15;;;;;;;29.55;31.78;95777.34;6214947;23;20107;-75
2022/08/15 11:36:12;;;;;;;1.23;1.13;;;;;;;29.55;31.65;95777.34;6215051;23;20027;-75
2022/08/15 11:38:46;;;;;;;1.20;1.02;;;;;;;29.54;31.95;95785.72;6214762;23;20100;-76
2022/08/15 11:41:40;;;;;;;1.98;0.95;;;;;;;29.50;31.45;95779.47;6214133;23;20560;-76
2022/08/15 11:44:24;;;;;;;2.05;1.02;;;;;;;29.44;31.34;95781.53;6214664;23;20017;-76
2022/08/15 11:46:53;;;;;;;3.00;1.20;;;;;;;29.41;31.72;95776.81;6214877;23;20031;-75
2022/08/15 11:49:28;;;;;;;1.45;0.88;;;;;;;29.39;31.85;95765.59;6214782;23;20024;-75
2022/08/15 11:52:04;;;;;;;2.90;0.90;;;;;;;29.37;31.25;95765.13;6214417;23;20032;-76
2022/08/15 11:55:14;;;;;;;1.00;1.00;;;;;;;29.33;31.32;95767.66;6217950;23;20556;-81
2022/08/15 11:57:54;;;;;;;0.80;0.80;;;;;;;29.33;30.86;95766.88;6225190;23;20031;-82
2022/08/15 12:00:24;;;;;;;;;;;;;;;29.37;31.79;95771.28;6223973;23;20016;-82
2022/08/15 12:02:57;;;;;;;3.60;1.50;;;;;;;29.42;31.03;95766.84;6221484;23;20311;-82
2022/08/15 12:05:44;;;;;;;1.95;0.90;;;;;;;29.44;31.27;95764.63;6192611;23;20107;-82
2022/08/15 12:08:34;;;;;;;0.85;0.82;;;;;;;29.43;31.52;95754.97;6194235;23;20056;-81
2022/08/15 12:11:05;;;;;;;0.98;0.98;;;;;;;29.46;31.28;95749.75;6193527;23;20025;-82
2022/08/15 12:13:36;;;;;;;1.73;1.30;;;;;;;29.50;31.18;95742.63;6194878;23;20025;-81
2022/08/15 12:16:23;;;;;;;3.40;1.10;;;;;;;29.53;31.11;95741.19;6192671;23;20068;-81
2022/08/15 12:18:56;;;;;;;1.85;1.25;;;;;;;29.60;30.79;95746.03;6192424;23;20353;-80
2022/08/15 12:21:27;;;;;;;1.40;1.30;;;;;;;29.60;30.69;95738.75;6194702;23;20020;-82
2022/08/15 12:24:02;;;;;;;1.55;1.38;;;;;;;29.63;30.62;95748.88;6191800;23;20017;-81
2022/08/15 12:26:31;;;;;;;1.05;0.98;;;;;;;29.68;30.57;95742.53;6193700;23;20025;-82
2022/08/15 12:29:14;;;;;;;3.25;1.52;;;;;;;29.73;30.34;95734.28;6195462;23;20028;-81
2022/08/15 12:31:46;;;;;;;3.38;1.38;;;;;;;29.76;30.17;95734.44;6194111;23;20049;-82
2022/08/15 12:34:17;;;;;;;2.22;1.25;;;;;;;29.77;30.39;95736.00;6193054;23;20025;-82
2022/08/15 12:36:56;;;;;;;2.65;1.17;;;;;;;29.77;29.90;95735.22;6194766;23;20017;-82
2022/08/15 12:39:36;;;;;;;2.60;1.20;;;;;;;29.77;29.95;95732.53;6193658;23;20033;-81